createdAt,value
2018-03-27T00:00:15.124Z,3.6
2018-03-27T00:01:16.732Z,3.0
2018-03-27T00:02:18.340Z,2.5
2018-03-27T00:03:19.947Z,3.3
2018-03-27T00:04:21.554Z,2.6
2018-03-27T00:05:23.164Z,2.5
2018-03-27T00:06:24.769Z,2.8
2018-03-27T00:07:26.368Z,5.7
2018-03-27T00:08:27.981Z,17.4
2018-03-27T00:09:29.588Z,2.5
2018-03-27T00:10:31.189Z,4.2
2018-03-27T00:11:32.801Z,3.9
2018-03-27T00:12:34.403Z,3.1
2018-03-27T00:13:36.013Z,3.0
2018-03-27T00:14:37.621Z,5.7
2018-03-27T00:15:39.224Z,7.3
2018-03-27T00:16:40.833Z,3.0
2018-03-27T00:17:42.439Z,4.0
2018-03-27T00:18:44.042Z,2.5
2018-03-27T00:19:45.648Z,2.5
2018-03-27T00:20:47.258Z,7.4
2018-03-27T00:21:48.867Z,3.1
2018-03-27T00:22:50.470Z,3.5
2018-03-27T00:23:52.080Z,4.1
2018-03-27T00:24:53.684Z,2.6
2018-03-27T00:25:55.286Z,4.1
2018-03-27T00:26:56.891Z,19.8
2018-03-27T00:27:58.502Z,2.3
2018-03-27T00:29:00.110Z,5.1
2018-03-27T00:30:01.710Z,5.7
2018-03-27T00:31:03.323Z,4.2
2018-03-27T00:32:04.932Z,4.0
2018-03-27T00:33:06.537Z,6.6
2018-03-27T00:34:08.146Z,5.2
2018-03-27T00:35:09.755Z,4.6
2018-03-27T00:36:11.360Z,4.6
2018-03-27T00:37:12.960Z,5.7
2018-03-27T00:38:14.568Z,4.0
2018-03-27T00:39:16.174Z,5.0
2018-03-27T00:40:17.783Z,2.8
2018-03-27T00:41:19.384Z,16.4
2018-03-27T00:42:20.991Z,6.0
2018-03-27T00:43:22.600Z,3.9
2018-03-27T00:44:24.204Z,5.6
2018-03-27T00:45:25.806Z,3.3
2018-03-27T00:46:27.421Z,4.5
2018-03-27T00:47:29.029Z,7.5
2018-03-27T00:48:30.634Z,2.6
2018-03-27T00:49:32.241Z,3.9
2018-03-27T00:50:33.843Z,3.5
2018-03-27T00:51:35.446Z,9.1
2018-03-27T00:52:37.051Z,3.2
2018-03-27T00:53:38.658Z,5.0
2018-03-27T00:54:40.273Z,3.2
2018-03-27T00:55:41.880Z,2.5
2018-03-27T00:56:43.490Z,4.5
2018-03-27T00:57:45.089Z,7.5
2018-03-27T00:58:46.694Z,7.7
2018-03-27T00:59:48.297Z,4.4
2018-03-27T01:00:49.905Z,3.2
2018-03-27T01:01:51.516Z,4.1
2018-03-27T01:02:53.112Z,4.5
2018-03-27T01:03:54.722Z,9.5
2018-03-27T01:04:56.323Z,4.2
2018-03-27T01:05:57.924Z,3.5
2018-03-27T01:07:00.101Z,3.1
2018-03-27T01:08:01.711Z,4.5
2018-03-27T01:09:03.312Z,3.6
2018-03-27T01:10:04.922Z,4.8
2018-03-27T01:11:06.530Z,3.9
2018-03-27T01:12:08.128Z,3.9
2018-03-27T01:13:09.737Z,3.3
2018-03-27T01:14:11.340Z,4.0
2018-03-27T01:15:12.942Z,4.3
2018-03-27T01:16:14.547Z,3.1
2018-03-27T01:17:16.153Z,4.5
2018-03-27T01:18:17.762Z,5.0
2018-03-27T01:19:19.360Z,5.3
2018-03-27T01:20:20.963Z,3.2
2018-03-27T01:21:22.571Z,3.6
2018-03-27T01:22:24.177Z,4.5
2018-03-27T01:23:25.786Z,2.5
2018-03-27T01:24:27.387Z,6.6
2018-03-27T01:25:28.994Z,4.5
2018-03-27T01:26:30.598Z,7.3
2018-03-27T01:27:32.207Z,3.8
2018-03-27T01:28:33.816Z,2.4
2018-03-27T01:29:35.417Z,4.6
2018-03-27T01:30:37.029Z,9.3
2018-03-27T01:31:38.631Z,4.6
2018-03-27T01:32:40.236Z,4.6
2018-03-27T01:33:41.838Z,12.2
2018-03-27T01:34:43.442Z,3.3
2018-03-27T01:35:45.044Z,4.9
2018-03-27T01:36:46.647Z,5.0
2018-03-27T01:37:48.258Z,6.2
2018-03-27T01:38:49.865Z,8.4
2018-03-27T01:39:51.467Z,13.4
2018-03-27T01:40:53.069Z,9.5
2018-03-27T01:41:54.677Z,5.4
2018-03-27T01:42:56.280Z,9.0
2018-03-27T01:43:57.887Z,5.7
2018-03-27T01:44:59.489Z,4.4
2018-03-27T01:46:01.099Z,6.2
2018-03-27T01:47:02.701Z,5.4
2018-03-27T01:48:04.310Z,2.9
2018-03-27T01:49:05.916Z,4.4
2018-03-27T01:50:07.526Z,4.5
2018-03-27T01:51:09.131Z,7.8
2018-03-27T01:52:10.736Z,9.7
2018-03-27T01:53:12.341Z,3.4
2018-03-27T01:54:13.949Z,5.3
2018-03-27T01:55:15.557Z,5.5
2018-03-27T01:56:17.162Z,6.1
2018-03-27T01:57:18.762Z,5.5
2018-03-27T01:58:20.374Z,7.7
2018-03-27T01:59:21.981Z,7.2
2018-03-27T02:00:23.586Z,4.7
2018-03-27T02:01:25.193Z,9.3
2018-03-27T02:02:26.799Z,5.9
2018-03-27T02:03:28.406Z,8.1
2018-03-27T02:04:30.013Z,18.6
2018-03-27T02:05:31.612Z,4.2
2018-03-27T02:06:33.232Z,15.6
2018-03-27T02:07:34.820Z,5.0
2018-03-27T02:08:36.430Z,5.9
2018-03-27T02:09:38.034Z,4.4
2018-03-27T02:10:39.637Z,10.0
2018-03-27T02:11:41.246Z,24.2
2018-03-27T02:12:42.856Z,6.1
2018-03-27T02:13:44.463Z,5.4
2018-03-27T02:14:46.066Z,9.2
2018-03-27T02:15:47.671Z,6.9
2018-03-27T02:16:49.276Z,9.7
2018-03-27T02:17:50.876Z,12.4
2018-03-27T02:18:52.487Z,5.9
2018-03-27T02:19:54.094Z,4.9
2018-03-27T02:20:55.698Z,8.4
2018-03-27T02:21:57.304Z,10.1
2018-03-27T02:22:58.913Z,10.7
2018-03-27T02:24:00.516Z,5.4
2018-03-27T02:25:02.125Z,9.5
2018-03-27T02:26:03.728Z,8.8
2018-03-27T02:27:05.336Z,4.7
2018-03-27T02:28:06.952Z,8.9
2018-03-27T02:29:08.559Z,5.7
2018-03-27T02:30:10.163Z,6.7
2018-03-27T02:31:11.772Z,5.5
2018-03-27T02:32:13.373Z,16.8
2018-03-27T02:33:14.982Z,9.1
2018-03-27T02:34:16.595Z,6.7
2018-03-27T02:35:18.191Z,7.3
2018-03-27T02:36:19.825Z,6.9
2018-03-27T02:37:21.430Z,8.9
2018-03-27T02:38:23.036Z,7.1
2018-03-27T02:39:24.654Z,11.7
2018-03-27T02:40:26.250Z,6.8
2018-03-27T02:41:27.859Z,11.8
2018-03-27T02:42:29.472Z,6.0
2018-03-27T02:43:31.070Z,12.0
2018-03-27T02:44:32.675Z,4.5
2018-03-27T02:45:34.278Z,26.9
2018-03-27T02:46:35.892Z,10.2
2018-03-27T02:47:37.494Z,12.6
2018-03-27T02:48:39.099Z,8.9
2018-03-27T02:49:40.705Z,8.4
2018-03-27T02:50:42.318Z,10.7
2018-03-27T02:51:43.923Z,11.0
2018-03-27T02:52:45.521Z,13.2
2018-03-27T02:53:47.131Z,10.1
2018-03-27T02:54:48.736Z,10.4
2018-03-27T02:55:50.345Z,11.1
2018-03-27T02:56:51.948Z,21.0
2018-03-27T02:57:53.565Z,11.6
2018-03-27T02:58:55.166Z,7.9
2018-03-27T02:59:56.826Z,43.0
2018-03-27T03:00:58.381Z,11.8
2018-03-27T03:01:59.984Z,7.1
2018-03-27T03:03:01.586Z,9.6
2018-03-27T03:04:03.205Z,6.4
2018-03-27T03:05:04.808Z,11.9
2018-03-27T03:06:06.414Z,5.8
2018-03-27T03:07:08.018Z,12.4
2018-03-27T03:08:09.624Z,19.0
2018-03-27T03:09:11.232Z,24.3
2018-03-27T03:10:12.859Z,20.0
2018-03-27T03:11:14.443Z,8.5
2018-03-27T03:12:16.052Z,12.6
2018-03-27T03:13:17.659Z,8.1
2018-03-27T03:14:19.262Z,17.6
2018-03-27T03:15:20.872Z,13.4
2018-03-27T03:16:22.471Z,9.1
2018-03-27T03:17:24.072Z,9.6
2018-03-27T03:18:25.683Z,15.4
2018-03-27T03:19:27.290Z,9.9
2018-03-27T03:20:28.895Z,13.9
2018-03-27T03:21:30.500Z,8.8
2018-03-27T03:22:32.102Z,17.1
2018-03-27T03:23:33.706Z,16.0
2018-03-27T03:24:35.315Z,13.6
2018-03-27T03:25:36.923Z,19.4
2018-03-27T03:26:38.535Z,12.1
2018-03-27T03:27:40.138Z,14.1
2018-03-27T03:28:41.748Z,20.6
2018-03-27T03:29:43.353Z,15.7
2018-03-27T03:30:44.960Z,11.1
2018-03-27T03:31:46.565Z,12.3
2018-03-27T03:32:48.172Z,13.8
2018-03-27T03:33:49.783Z,14.7
2018-03-27T03:34:51.386Z,10.1
2018-03-27T03:35:52.986Z,17.0
2018-03-27T03:36:54.598Z,24.8
2018-03-27T03:37:56.198Z,21.0
2018-03-27T03:38:57.808Z,16.2
2018-03-27T03:39:59.414Z,7.2
2018-03-27T03:41:01.020Z,7.8
2018-03-27T03:42:02.637Z,13.2
2018-03-27T03:43:04.236Z,19.0
2018-03-27T03:44:05.840Z,15.8
2018-03-27T03:45:07.448Z,11.2
2018-03-27T03:46:09.062Z,24.1
2018-03-27T03:47:10.666Z,18.1
2018-03-27T03:48:12.269Z,17.9
2018-03-27T03:49:13.877Z,18.6
2018-03-27T03:50:15.484Z,16.2
2018-03-27T03:51:17.094Z,14.8
2018-03-27T03:52:18.695Z,14.6
2018-03-27T03:53:20.299Z,22.1
2018-03-27T03:54:21.910Z,17.5
2018-03-27T03:55:23.514Z,13.9
2018-03-27T03:56:25.122Z,18.9
2018-03-27T03:57:26.730Z,14.9
2018-03-27T03:58:28.961Z,15.9
2018-03-27T03:59:30.571Z,12.6
2018-03-27T04:00:32.180Z,13.1
2018-03-27T04:01:33.783Z,24.0
2018-03-27T04:02:35.395Z,33.5
2018-03-27T04:03:37.005Z,20.6
2018-03-27T04:04:38.617Z,16.0
2018-03-27T04:05:40.226Z,28.1
2018-03-27T04:06:41.834Z,17.9
2018-03-27T04:07:43.439Z,21.7
2018-03-27T04:08:45.047Z,26.2
2018-03-27T04:09:46.654Z,24.2
2018-03-27T04:10:48.261Z,24.8
2018-03-27T04:11:49.867Z,26.6
2018-03-27T04:12:51.472Z,42.2
2018-03-27T04:13:53.081Z,20.3
2018-03-27T04:14:54.690Z,26.9
2018-03-27T04:15:56.295Z,24.0
2018-03-27T04:16:57.907Z,25.0
2018-03-27T04:17:59.515Z,31.9
2018-03-27T04:19:01.124Z,24.5
2018-03-27T04:20:02.732Z,26.2
2018-03-27T04:21:04.341Z,18.6
2018-03-27T04:22:05.945Z,15.5
2018-03-27T04:23:07.556Z,21.3
2018-03-27T04:24:09.163Z,29.2
2018-03-27T04:25:10.779Z,16.8
2018-03-27T04:26:12.401Z,22.4
2018-03-27T04:27:13.988Z,26.7
2018-03-27T04:28:15.593Z,25.2
2018-03-27T04:29:17.195Z,38.5
2018-03-27T04:30:18.808Z,37.8
2018-03-27T04:31:20.415Z,20.4
2018-03-27T04:32:22.034Z,20.0
2018-03-27T04:33:23.651Z,25.4
2018-03-27T04:34:25.260Z,39.3
2018-03-27T04:35:27.493Z,29.7
2018-03-27T04:36:28.422Z,18.8
2018-03-27T04:37:30.027Z,19.1
2018-03-27T04:38:31.639Z,19.2
2018-03-27T04:39:33.251Z,23.1
2018-03-27T04:40:34.852Z,32.5
2018-03-27T04:41:36.467Z,22.8
2018-03-27T04:42:38.066Z,27.4
2018-03-27T04:43:39.674Z,31.3
2018-03-27T04:44:41.280Z,45.3
2018-03-27T04:45:42.888Z,18.3
2018-03-27T04:46:44.500Z,39.8
2018-03-27T04:47:46.102Z,33.8
2018-03-27T04:48:47.712Z,30.7
2018-03-27T04:49:49.320Z,20.5
2018-03-27T04:50:50.927Z,43.8
2018-03-27T04:51:52.538Z,43.2
2018-03-27T04:52:54.146Z,35.9
2018-03-27T04:53:55.758Z,32.3
2018-03-27T04:54:57.365Z,36.3
2018-03-27T04:55:58.967Z,31.3
2018-03-27T04:57:00.575Z,36.1
2018-03-27T04:58:02.182Z,56.4
2018-03-27T04:59:03.794Z,56.3
2018-03-27T05:00:05.407Z,51.5
2018-03-27T05:01:07.014Z,26.4
2018-03-27T05:02:08.623Z,33.5
2018-03-27T05:03:10.231Z,55.4
2018-03-27T05:04:11.833Z,36.7
2018-03-27T05:05:13.446Z,30.9
2018-03-27T05:06:15.057Z,36.5
2018-03-27T05:07:16.665Z,29.1
2018-03-27T05:08:18.276Z,31.6
2018-03-27T05:09:19.887Z,44.3
2018-03-27T05:10:21.502Z,47.8
2018-03-27T05:11:23.112Z,52.9
2018-03-27T05:12:24.726Z,40.6
2018-03-27T05:13:26.333Z,38.2
2018-03-27T05:14:27.943Z,34.4
2018-03-27T05:15:29.559Z,26.5
2018-03-27T05:16:31.169Z,42.1
2018-03-27T05:17:32.777Z,31.1
2018-03-27T05:18:34.397Z,32.9
2018-03-27T05:19:36.003Z,34.2
2018-03-27T05:20:37.614Z,43.3
2018-03-27T05:21:39.229Z,33.2
2018-03-27T05:22:40.844Z,39.6
2018-03-27T05:23:42.449Z,48.2
2018-03-27T05:24:44.060Z,35.5
2018-03-27T05:25:45.674Z,42.9
2018-03-27T05:26:47.285Z,31.3
2018-03-27T05:27:48.899Z,55.7
2018-03-27T05:28:50.536Z,40.5
2018-03-27T05:29:52.118Z,27.7
2018-03-27T05:30:53.727Z,29.6
2018-03-27T05:31:55.338Z,52.2
2018-03-27T05:32:56.947Z,47.8
2018-03-27T05:33:58.565Z,48.0
2018-03-27T05:35:00.168Z,41.3
2018-03-27T05:36:01.785Z,28.7
2018-03-27T05:37:03.396Z,29.9
2018-03-27T05:38:05.010Z,30.8
2018-03-27T05:39:06.618Z,38.9
2018-03-27T05:40:08.239Z,117.1
2018-03-27T05:41:09.843Z,43.5
2018-03-27T05:42:11.455Z,59.4
2018-03-27T05:43:13.074Z,39.1
2018-03-27T05:44:14.685Z,52.3
2018-03-27T05:45:16.294Z,48.6
2018-03-27T05:46:17.912Z,34.5
2018-03-27T05:47:20.211Z,37.2
2018-03-27T05:48:21.824Z,42.7
2018-03-27T05:49:23.433Z,62.7
2018-03-27T05:50:25.053Z,29.5
2018-03-27T05:51:26.665Z,38.1
2018-03-27T05:52:28.281Z,36.9
2018-03-27T05:53:29.888Z,41.8
2018-03-27T05:54:32.334Z,43.2
2018-03-27T05:55:33.945Z,99.2
2018-03-27T05:56:35.561Z,61.8
2018-03-27T05:57:37.180Z,29.5
2018-03-27T05:58:38.797Z,28.1
2018-03-27T05:59:40.408Z,35.2
2018-03-27T06:00:42.019Z,27.3
2018-03-27T06:01:43.634Z,31.4
2018-03-27T06:02:45.244Z,25.0
2018-03-27T06:03:46.863Z,21.2
2018-03-27T06:04:49.053Z,23.3
2018-03-27T06:05:50.672Z,33.4
2018-03-27T06:06:52.280Z,37.4
2018-03-27T06:07:53.895Z,31.6
2018-03-27T06:08:55.505Z,39.6
2018-03-27T06:09:57.116Z,47.0
2018-03-27T06:10:58.736Z,42.7
2018-03-27T06:12:00.345Z,30.9
2018-03-27T06:13:01.963Z,39.1
2018-03-27T06:14:03.575Z,23.7
2018-03-27T06:15:05.190Z,26.9
2018-03-27T06:16:06.805Z,36.8
2018-03-27T06:17:09.187Z,26.1
2018-03-27T06:18:10.800Z,27.6
2018-03-27T06:19:12.416Z,20.3
2018-03-27T06:20:14.039Z,33.8
2018-03-27T06:21:15.644Z,34.1
2018-03-27T06:22:17.255Z,39.1
2018-03-27T06:23:18.876Z,24.8
2018-03-27T06:24:20.487Z,17.4
2018-03-27T06:25:22.103Z,51.5
2018-03-27T06:26:23.720Z,34.8
2018-03-27T06:27:25.357Z,18.8
2018-03-27T06:28:26.946Z,29.5
2018-03-27T06:29:28.562Z,18.4
2018-03-27T06:30:30.175Z,31.1
2018-03-27T06:31:31.787Z,30.5
2018-03-27T06:32:33.405Z,45.6
2018-03-27T06:33:35.018Z,37.8
2018-03-27T06:34:36.632Z,24.6
2018-03-27T06:35:38.247Z,25.8
2018-03-27T06:36:39.867Z,16.2
2018-03-27T06:37:41.479Z,30.5
2018-03-27T06:38:43.089Z,21.7
2018-03-27T06:39:44.705Z,14.4
2018-03-27T06:40:46.319Z,31.5
2018-03-27T06:41:47.936Z,23.4
2018-03-27T06:42:49.546Z,25.8
2018-03-27T06:43:51.156Z,16.4
2018-03-27T06:44:52.770Z,15.7
2018-03-27T06:45:54.384Z,13.2
2018-03-27T06:46:55.995Z,25.2
2018-03-27T06:47:57.615Z,16.0
2018-03-27T06:48:59.233Z,14.7
2018-03-27T06:50:00.842Z,19.3
2018-03-27T06:51:02.452Z,14.3
2018-03-27T06:52:04.069Z,10.8
2018-03-27T06:53:05.685Z,15.3
2018-03-27T06:54:07.296Z,13.5
2018-03-27T06:55:08.915Z,17.6
2018-03-27T06:56:10.528Z,12.5
2018-03-27T06:57:12.143Z,14.8
2018-03-27T06:58:13.750Z,13.7
2018-03-27T06:59:15.366Z,10.0
2018-03-27T07:00:16.979Z,19.9
2018-03-27T07:01:18.599Z,13.7
2018-03-27T07:02:20.229Z,12.1
2018-03-27T07:03:21.837Z,17.7
2018-03-27T07:04:23.484Z,16.4
2018-03-27T07:05:25.136Z,11.4
2018-03-27T07:06:26.686Z,19.8
2018-03-27T07:07:28.308Z,24.6
2018-03-27T07:08:29.924Z,17.6
2018-03-27T07:09:31.545Z,19.7
2018-03-27T07:10:33.172Z,16.1
2018-03-27T07:11:34.820Z,11.5
2018-03-27T07:12:36.407Z,23.1
2018-03-27T07:13:38.030Z,15.1
2018-03-27T07:14:40.462Z,12.7
2018-03-27T07:15:42.112Z,18.5
2018-03-27T07:16:43.707Z,17.6
2018-03-27T07:17:45.344Z,12.4
2018-03-27T07:18:46.961Z,10.2
2018-03-27T07:19:48.579Z,18.3
2018-03-27T07:20:50.189Z,15.3
2018-03-27T07:21:51.818Z,14.6
2018-03-27T07:22:53.436Z,19.1
2018-03-27T07:23:55.060Z,15.0
2018-03-27T07:24:56.690Z,14.3
2018-03-27T07:25:58.308Z,15.0
2018-03-27T07:26:59.939Z,12.5
2018-03-27T07:28:01.560Z,18.7
2018-03-27T07:29:03.183Z,26.5
2018-03-27T07:30:04.813Z,17.5
2018-03-27T07:31:06.437Z,19.1
2018-03-27T07:32:08.061Z,24.3
2018-03-27T07:33:09.691Z,22.8
2018-03-27T07:34:11.315Z,19.8
2018-03-27T07:35:12.942Z,17.4
2018-03-27T07:36:14.572Z,18.1
2018-03-27T07:37:16.198Z,21.7
2018-03-27T07:38:17.829Z,23.3
2018-03-27T07:39:19.456Z,18.5
2018-03-27T07:40:21.077Z,27.2
2018-03-27T07:41:22.706Z,21.7
2018-03-27T07:42:24.331Z,17.7
2018-03-27T07:43:25.961Z,24.7
2018-03-27T07:44:27.591Z,24.1
2018-03-27T07:45:29.215Z,19.2
2018-03-27T07:46:30.852Z,24.4
2018-03-27T07:47:32.476Z,23.7
2018-03-27T07:48:34.104Z,18.6
2018-03-27T07:49:35.763Z,26.9
2018-03-27T07:50:37.358Z,20.0
2018-03-27T07:51:38.990Z,21.3
2018-03-27T07:52:40.615Z,21.2
2018-03-27T07:53:42.248Z,17.2
2018-03-27T07:54:43.872Z,18.4
2018-03-27T07:55:45.500Z,25.3
2018-03-27T07:56:47.129Z,19.3
2018-03-27T07:57:48.759Z,19.7
2018-03-27T07:58:50.386Z,21.4
2018-03-27T07:59:52.019Z,18.3
2018-03-27T08:00:53.655Z,19.5
2018-03-27T08:01:55.277Z,17.6
2018-03-27T08:02:56.907Z,19.9
2018-03-27T08:03:58.573Z,15.3
2018-03-27T08:05:00.163Z,18.2
2018-03-27T08:06:01.800Z,17.9
2018-03-27T08:07:03.428Z,21.9
2018-03-27T08:08:05.058Z,18.7
2018-03-27T08:09:06.690Z,19.2
2018-03-27T08:10:08.322Z,19.3
2018-03-27T08:11:09.992Z,19.5
2018-03-27T08:12:11.583Z,16.5
2018-03-27T08:13:13.225Z,17.2
2018-03-27T08:14:14.849Z,19.6
2018-03-27T08:15:16.483Z,19.9
2018-03-27T08:16:18.110Z,17.7
2018-03-27T08:17:19.744Z,16.4
2018-03-27T08:18:21.373Z,12.1
2018-03-27T08:19:23.004Z,13.7
2018-03-27T08:20:24.642Z,23.2
2018-03-27T08:21:26.266Z,18.9
2018-03-27T08:22:27.904Z,11.0
2018-03-27T08:23:29.531Z,15.0
2018-03-27T08:24:31.171Z,14.4
2018-03-27T08:25:32.799Z,12.1
2018-03-27T08:26:34.432Z,14.4
2018-03-27T08:27:36.061Z,18.9
2018-03-27T08:28:37.691Z,11.6
2018-03-27T08:29:39.335Z,12.6
2018-03-27T08:30:40.956Z,11.0
2018-03-27T08:31:42.594Z,10.9
2018-03-27T08:32:44.220Z,17.2
2018-03-27T08:33:45.856Z,13.3
2018-03-27T08:34:47.487Z,12.5
2018-03-27T08:35:49.123Z,11.9
2018-03-27T08:36:50.756Z,11.8
2018-03-27T08:37:52.388Z,9.5
2018-03-27T08:38:54.017Z,8.4
2018-03-27T08:39:55.646Z,11.3
2018-03-27T08:40:57.287Z,12.6
2018-03-27T08:41:58.921Z,12.0
2018-03-27T08:43:00.557Z,11.9
2018-03-27T08:44:02.190Z,13.8
2018-03-27T08:45:03.823Z,13.9
2018-03-27T08:46:05.461Z,11.0
2018-03-27T08:47:07.084Z,16.5
2018-03-27T08:48:08.719Z,9.6
2018-03-27T08:49:10.354Z,18.4
2018-03-27T08:50:11.989Z,13.0
2018-03-27T08:51:13.622Z,8.4
2018-03-27T08:52:15.257Z,8.2
2018-03-27T08:53:16.889Z,8.1
2018-03-27T08:54:18.517Z,11.9
2018-03-27T08:55:20.156Z,13.8
2018-03-27T08:56:21.793Z,8.8
2018-03-27T08:57:23.426Z,9.8
2018-03-27T08:58:25.065Z,8.8
2018-03-27T08:59:26.698Z,8.9
2018-03-27T09:00:28.331Z,11.3
2018-03-27T09:01:29.968Z,12.0
2018-03-27T09:02:31.604Z,7.6
2018-03-27T09:03:33.235Z,9.7
2018-03-27T09:04:34.874Z,7.1
2018-03-27T09:05:36.507Z,8.8
2018-03-27T09:06:38.136Z,9.1
2018-03-27T09:07:39.775Z,9.6
2018-03-27T09:08:41.403Z,8.9
2018-03-27T09:09:43.040Z,5.4
2018-03-27T09:10:44.675Z,4.7
2018-03-27T09:11:46.305Z,8.4
2018-03-27T09:12:47.947Z,10.1
2018-03-27T09:13:49.630Z,7.4
2018-03-27T09:14:51.212Z,5.5
2018-03-27T09:15:52.844Z,8.7
2018-03-27T09:16:54.481Z,8.2
2018-03-27T09:17:56.118Z,4.7
2018-03-27T09:18:57.752Z,8.5
2018-03-27T09:19:59.382Z,6.8
2018-03-27T09:21:01.016Z,9.4
2018-03-27T09:22:02.658Z,6.2
2018-03-27T09:23:04.283Z,5.2
2018-03-27T09:24:05.914Z,8.8
2018-03-27T09:25:07.549Z,6.9
2018-03-27T09:26:09.185Z,5.3
2018-03-27T09:27:10.820Z,5.6
2018-03-27T09:28:12.454Z,6.1
2018-03-27T09:29:14.083Z,5.5
2018-03-27T09:30:15.722Z,4.2
2018-03-27T09:31:17.392Z,5.1
2018-03-27T09:32:18.993Z,4.4
2018-03-27T09:33:20.624Z,5.0
2018-03-27T09:34:22.261Z,4.5
2018-03-27T09:35:23.960Z,5.2
2018-03-27T09:36:25.528Z,7.6
2018-03-27T09:37:27.160Z,4.3
2018-03-27T09:38:28.798Z,4.0
2018-03-27T09:39:30.426Z,3.5
2018-03-27T09:40:32.064Z,4.2
2018-03-27T09:41:33.699Z,5.7
2018-03-27T09:42:35.329Z,4.5
2018-03-27T09:43:36.971Z,3.7
2018-03-27T09:44:38.599Z,4.2
2018-03-27T09:45:40.234Z,6.2
2018-03-27T09:46:41.875Z,7.4
2018-03-27T09:47:43.512Z,3.6
2018-03-27T09:48:45.149Z,6.4
2018-03-27T09:49:46.780Z,3.0
2018-03-27T09:50:48.416Z,3.6
2018-03-27T09:51:50.053Z,5.0
2018-03-27T09:52:51.692Z,3.2
2018-03-27T09:53:53.314Z,3.9
2018-03-27T09:54:54.956Z,3.3
2018-03-27T09:55:56.590Z,6.5
2018-03-27T09:56:58.223Z,8.3
2018-03-27T09:57:59.862Z,2.6
2018-03-27T09:59:01.497Z,4.1
2018-03-27T10:00:03.127Z,6.4
2018-03-27T10:01:04.765Z,3.5
2018-03-27T10:02:06.399Z,3.9
2018-03-27T10:03:08.041Z,4.4
2018-03-27T10:04:09.676Z,6.0
2018-03-27T10:05:11.305Z,3.4
2018-03-27T10:06:12.940Z,7.0
2018-03-27T10:07:14.574Z,3.9
2018-03-27T10:08:16.207Z,14.1
2018-03-27T10:09:17.846Z,3.7
2018-03-27T10:10:19.482Z,4.1
2018-03-27T10:11:21.117Z,3.7
2018-03-27T10:12:22.750Z,6.1
2018-03-27T10:13:24.376Z,4.0
2018-03-27T10:14:26.011Z,4.0
2018-03-27T10:15:27.637Z,5.9
2018-03-27T10:16:29.273Z,4.0
2018-03-27T10:17:30.904Z,5.4
2018-03-27T10:18:32.528Z,4.0
2018-03-27T10:19:34.158Z,4.1
2018-03-27T10:20:35.787Z,3.9
2018-03-27T10:21:37.413Z,2.7
2018-03-27T10:22:39.047Z,5.7
2018-03-27T10:23:40.675Z,2.5
2018-03-27T10:24:42.303Z,3.2
2018-03-27T10:25:43.928Z,6.1
2018-03-27T10:26:45.557Z,2.7
2018-03-27T10:27:47.184Z,5.6
2018-03-27T10:28:48.807Z,6.2
2018-03-27T10:29:50.438Z,4.8
2018-03-27T10:30:52.069Z,3.1
2018-03-27T10:31:53.693Z,7.5
2018-03-27T10:32:55.317Z,7.9
2018-03-27T10:33:56.946Z,14.8
2018-03-27T10:34:58.569Z,4.5
2018-03-27T10:36:00.200Z,3.9
2018-03-27T10:37:01.876Z,4.3
2018-03-27T10:38:03.505Z,3.6
2018-03-27T10:39:05.136Z,11.0
2018-03-27T10:40:06.763Z,5.2
2018-03-27T10:41:08.386Z,5.2
2018-03-27T10:42:10.023Z,3.8
2018-03-27T10:43:11.649Z,5.2
2018-03-27T10:44:13.278Z,5.8
2018-03-27T10:45:14.910Z,4.8
2018-03-27T10:46:16.537Z,6.0
2018-03-27T10:47:18.170Z,5.1
2018-03-27T10:48:19.794Z,4.5
2018-03-27T10:49:21.424Z,5.4
2018-03-27T10:50:23.054Z,10.5
2018-03-27T10:51:24.679Z,7.6
2018-03-27T10:52:26.310Z,4.4
2018-03-27T10:53:27.940Z,4.9
2018-03-27T10:54:29.569Z,3.4
2018-03-27T10:55:31.198Z,2.6
2018-03-27T10:56:32.820Z,3.3
2018-03-27T10:57:34.449Z,3.2
2018-03-27T10:58:36.069Z,5.6
2018-03-27T10:59:37.693Z,5.6
2018-03-27T11:00:39.320Z,4.1
2018-03-27T11:01:40.945Z,2.3
2018-03-27T11:02:42.565Z,4.5
2018-03-27T11:03:44.219Z,6.4
2018-03-27T11:04:45.814Z,5.3
2018-03-27T11:05:47.436Z,3.5
2018-03-27T11:06:49.065Z,2.7
2018-03-27T11:07:50.685Z,2.7
2018-03-27T11:08:52.312Z,3.3
2018-03-27T11:09:53.937Z,3.3
2018-03-27T11:10:55.556Z,8.9
2018-03-27T11:11:57.184Z,7.5
2018-03-27T11:12:58.802Z,3.1
2018-03-27T11:14:00.429Z,3.7
2018-03-27T11:15:02.055Z,9.5
2018-03-27T11:16:03.679Z,3.2
2018-03-27T11:17:05.295Z,4.3
2018-03-27T11:18:06.917Z,5.8
2018-03-27T11:19:08.543Z,4.1
2018-03-27T11:20:10.160Z,4.5
2018-03-27T11:21:11.794Z,2.9
2018-03-27T11:22:14.140Z,5.4
2018-03-27T11:23:15.797Z,4.2
2018-03-27T11:24:17.380Z,4.8
2018-03-27T11:25:19.008Z,4.1
2018-03-27T11:26:20.630Z,5.0
2018-03-27T11:27:22.254Z,3.2
2018-03-27T11:28:23.880Z,2.9
2018-03-27T11:29:25.579Z,5.3
2018-03-27T11:30:27.122Z,3.8
2018-03-27T11:31:28.752Z,3.8
2018-03-27T11:32:30.369Z,4.7
2018-03-27T11:33:31.996Z,3.0
2018-03-27T11:34:33.617Z,15.2
2018-03-27T11:35:35.246Z,18.4
2018-03-27T11:36:36.868Z,4.8
2018-03-27T11:37:38.493Z,5.3
2018-03-27T11:38:40.117Z,7.7
2018-03-27T11:39:41.739Z,4.5
2018-03-27T11:40:43.363Z,3.9
2018-03-27T11:41:44.991Z,4.5
2018-03-27T11:42:46.614Z,3.4
2018-03-27T11:43:48.239Z,3.7
2018-03-27T11:44:50.616Z,3.7
2018-03-27T11:45:52.239Z,5.4
2018-03-27T11:46:53.864Z,6.5
2018-03-27T11:47:55.494Z,7.8
2018-03-27T11:48:57.120Z,7.1
2018-03-27T11:49:58.751Z,4.5
2018-03-27T11:51:00.380Z,13.7
2018-03-27T11:52:02.002Z,3.0
2018-03-27T11:53:03.625Z,4.7
2018-03-27T11:54:05.253Z,11.9
2018-03-27T11:55:06.875Z,3.8
2018-03-27T11:56:08.504Z,3.2
2018-03-27T11:57:10.135Z,5.4
2018-03-27T11:58:11.759Z,7.7
2018-03-27T11:59:13.385Z,4.7
2018-03-27T12:00:15.015Z,10.1
2018-03-27T12:01:16.648Z,5.1
2018-03-27T12:02:18.272Z,5.3
2018-03-27T12:03:19.898Z,5.3
2018-03-27T12:04:21.523Z,4.3
2018-03-27T12:05:23.157Z,12.4
2018-03-27T12:06:24.779Z,4.5
2018-03-27T12:07:26.502Z,8.2
2018-03-27T12:08:28.027Z,10.2
2018-03-27T12:09:29.649Z,29.0
2018-03-27T12:10:31.277Z,6.0
2018-03-27T12:11:32.898Z,6.9
2018-03-27T12:12:34.523Z,9.4
2018-03-27T12:13:36.149Z,4.7
2018-03-27T12:14:37.769Z,3.2
2018-03-27T12:15:39.394Z,5.0
2018-03-27T12:16:41.019Z,7.3
2018-03-27T12:17:42.643Z,6.2
2018-03-27T12:18:44.269Z,2.8
2018-03-27T12:19:45.895Z,12.4
2018-03-27T12:20:47.521Z,6.9
2018-03-27T12:21:49.151Z,4.7
2018-03-27T12:22:50.771Z,8.2
2018-03-27T12:23:52.394Z,4.4
2018-03-27T12:24:54.045Z,6.9
2018-03-27T12:25:55.641Z,6.7
2018-03-27T12:26:57.268Z,6.5
2018-03-27T12:27:58.888Z,22.5
2018-03-27T12:29:00.510Z,5.2
2018-03-27T12:30:02.130Z,5.3
2018-03-27T12:31:03.757Z,11.2
2018-03-27T12:32:05.379Z,4.0
2018-03-27T12:33:07.007Z,5.7
2018-03-27T12:34:08.633Z,5.1
2018-03-27T12:35:10.255Z,6.0
2018-03-27T12:36:11.878Z,4.0
2018-03-27T12:37:13.500Z,7.9
2018-03-27T12:38:15.123Z,5.4
2018-03-27T12:39:17.380Z,4.7
2018-03-27T12:40:19.008Z,6.8
2018-03-27T12:41:20.632Z,9.1
2018-03-27T12:42:22.255Z,12.8
2018-03-27T12:43:23.877Z,13.7
2018-03-27T12:44:25.501Z,6.1
2018-03-27T12:45:27.124Z,11.9
2018-03-27T12:46:28.765Z,5.3
2018-03-27T12:47:30.385Z,7.4
2018-03-27T12:48:32.008Z,10.2
2018-03-27T12:49:33.628Z,6.7
2018-03-27T12:50:35.252Z,12.2
2018-03-27T12:51:36.875Z,6.5
2018-03-27T12:52:38.498Z,9.3
2018-03-27T12:53:40.122Z,8.3
2018-03-27T12:54:41.749Z,6.2
2018-03-27T12:55:43.372Z,11.8
2018-03-27T12:56:44.997Z,7.1
2018-03-27T12:57:46.625Z,9.9
2018-03-27T12:58:48.250Z,5.0
2018-03-27T12:59:49.878Z,13.7
2018-03-27T13:00:51.503Z,4.5
2018-03-27T13:01:53.125Z,7.1
2018-03-27T13:02:54.755Z,7.7
2018-03-27T13:03:56.372Z,7.8
2018-03-27T13:04:57.996Z,6.6
2018-03-27T13:05:59.621Z,8.6
2018-03-27T13:07:01.244Z,10.2
2018-03-27T13:08:02.871Z,8.5
2018-03-27T13:09:04.497Z,16.3
2018-03-27T13:10:06.120Z,8.3
2018-03-27T13:11:07.747Z,7.8
2018-03-27T13:12:09.368Z,11.4
2018-03-27T13:13:10.992Z,9.7
2018-03-27T13:14:12.615Z,10.8
2018-03-27T13:15:14.233Z,5.8
2018-03-27T13:16:15.863Z,9.6
2018-03-27T13:17:17.481Z,5.7
2018-03-27T13:18:19.104Z,7.8
2018-03-27T13:19:20.725Z,7.2
2018-03-27T13:20:22.343Z,8.2
2018-03-27T13:21:23.970Z,7.0
2018-03-27T13:22:25.591Z,9.4
2018-03-27T13:23:27.250Z,12.6
2018-03-27T13:24:28.839Z,7.3
2018-03-27T13:25:30.459Z,7.6
2018-03-27T13:26:32.083Z,7.6
2018-03-27T13:27:33.705Z,11.2
2018-03-27T13:28:35.376Z,6.2
2018-03-27T13:29:36.953Z,7.8
2018-03-27T13:30:38.571Z,8.8
2018-03-27T13:31:40.196Z,4.5
2018-03-27T13:32:41.821Z,9.5
2018-03-27T13:33:43.442Z,13.1
2018-03-27T13:34:45.059Z,7.4
2018-03-27T13:35:46.698Z,7.1
2018-03-27T13:36:48.318Z,6.8
2018-03-27T13:37:50.874Z,5.4
2018-03-27T13:38:52.552Z,5.1
2018-03-27T13:39:54.110Z,6.1
2018-03-27T13:40:55.733Z,9.4
2018-03-27T13:41:57.349Z,15.4
2018-03-27T13:42:58.975Z,9.3
2018-03-27T13:44:00.599Z,19.2
2018-03-27T13:45:02.220Z,5.7
2018-03-27T13:46:03.841Z,9.9
2018-03-27T13:47:05.453Z,5.0
2018-03-27T13:48:07.075Z,8.4
2018-03-27T13:49:08.698Z,6.1
2018-03-27T13:50:10.313Z,7.4
2018-03-27T13:51:11.931Z,9.0
2018-03-27T13:52:13.548Z,7.7
2018-03-27T13:53:15.176Z,10.4
2018-03-27T13:54:16.794Z,6.5